Time,TemperatureF,DewpointF,PressureIn,WindDirection,WindDirectionDegrees,WindSpeedMPH,WindSpeedGustMPH,Humidity,HourlyPrecipIn,Conditions,Clouds,dailyrainin,SoftwareType,DateUTC
2013-02-05 00:01:00,14.7,12.1,29.81,ESE,115,0.0,0.0,89,0.00,,,0.00,VWS V14.01,2013-02-05 06:01:00,
2013-02-05 00:06:00,15.1,12.4,29.81,ESE,122,0.0,3.0,89,0.00,,,0.00,VWS V14.01,2013-02-05 06:06:00,
2013-02-05 00:11:00,15.5,12.8,29.80,ESE,122,0.0,3.0,89,0.00,,,0.00,VWS V14.01,2013-02-05 06:11:00,
2013-02-05 00:16:00,16.0,13.3,29.80,ESE,121,1.0,3.0,89,0.00,,,0.00,VWS V14.01,2013-02-05 06:16:00,
2013-02-05 00:21:00,16.5,13.8,29.80,SE,137,1.0,3.0,89,0.01,,,0.01,VWS V14.01,2013-02-05 06:21:00,
2013-02-05 00:26:00,16.9,14.2,29.79,SE,138,0.0,3.0,89,0.01,,,0.01,VWS V14.01,2013-02-05 06:26:00,
2013-02-05 00:31:00,17.3,14.4,29.79,SSE,149,0.0,0.0,88,0.01,,,0.01,VWS V14.01,2013-02-05 06:31:00,
2013-02-05 00:37:00,17.6,14.7,29.79,SW,226,0.0,4.0,88,0.01,,,0.01,VWS V14.01,2013-02-05 06:37:00,
2013-02-05 00:42:00,17.9,14.9,29.79,WSW,240,1.0,4.0,88,0.01,,,0.01,VWS V14.01,2013-02-05 06:42:00,
2013-02-05 00:47:00,18.3,15.4,29.79,SSW,206,0.0,5.0,88,0.01,,,0.01,VWS V14.01,2013-02-05 06:47:00,
2013-02-05 00:52:00,18.5,15.3,29.79,SW,217,1.0,5.0,87,0.01,,,0.01,VWS V14.01,2013-02-05 06:52:00,
2013-02-05 00:57:00,18.8,15.6,29.78,SE,140,1.0,5.0,87,0.01,,,0.01,VWS V14.01,2013-02-05 06:57:00,
2013-02-05 01:02:00,19.0,15.8,29.78,SSW,202,0.0,3.0,87,0.01,,,0.01,VWS V14.01,2013-02-05 07:02:00,
2013-02-05 01:07:00,19.1,15.6,29.78,SSW,205,0.0,6.0,86,0.01,,,0.01,VWS V14.01,2013-02-05 07:07:00,
2013-02-05 01:12:00,19.3,15.8,29.78,SSW,205,0.0,6.0,86,0.01,,,0.01,VWS V14.01,2013-02-05 07:12:00,
2013-02-05 01:17:00,19.4,15.9,29.77,SSW,201,0.0,6.0,86,0.01,,,0.01,VWS V14.01,2013-02-05 07:17:00,
2013-02-05 01:22:00,19.6,16.1,29.78,SW,225,0.0,6.0,86,0.01,,,0.01,VWS V14.01,2013-02-05 07:22:00,
2013-02-05 01:27:00,19.8,16.3,29.77,SW,234,0.0,6.0,86,0.01,,,0.01,VWS V14.01,2013-02-05 07:27:00,
2013-02-05 01:33:00,19.9,16.4,29.77,SW,231,0.0,3.0,86,0.00,,,0.01,VWS V14.01,2013-02-05 07:33:00,
2013-02-05 01:38:00,20.0,16.5,29.77,SSE,168,0.0,3.0,86,0.00,,,0.01,VWS V14.01,2013-02-05 07:38:00,
2013-02-05 01:43:00,20.2,16.7,29.76,SSE,165,0.0,4.0,86,0.00,,,0.01,VWS V14.01,2013-02-05 07:43:00,
2013-02-05 01:48:00,20.4,16.9,29.76,SW,236,0.0,4.0,86,0.00,,,0.01,VWS V14.01,2013-02-05 07:48:00,
2013-02-05 01:53:00,20.6,17.1,29.77,SSW,207,0.0,4.0,86,0.00,,,0.01,VWS V14.01,2013-02-05 07:53:00,
2013-02-05 01:58:00,20.7,17.2,29.77,SW,214,0.0,4.0,86,0.00,,,0.01,VWS V14.01,2013-02-05 07:58:00,
2013-02-05 02:03:00,20.8,17.0,29.77,SSW,211,0.0,0.0,85,0.00,,,0.01,VWS V14.01,2013-02-05 08:03:00,
2013-02-05 02:08:00,20.7,16.9,29.77,SW,220,0.0,5.0,85,0.00,,,0.01,VWS V14.01,2013-02-05 08:08:00,
2013-02-05 02:13:00,20.6,16.8,29.76,SW,214,0.0,5.0,85,0.00,,,0.01,VWS V14.01,2013-02-05 08:13:00,
2013-02-05 02:18:00,20.5,16.4,29.76,SW,215,0.0,5.0,84,0.00,,,0.01,VWS V14.01,2013-02-05 08:18:00,
2013-02-05 02:23:00,20.4,16.6,29.76,SW,214,2.0,5.0,85,0.00,,,0.01,VWS V14.01,2013-02-05 08:23:00,
2013-02-05 02:29:00,20.3,16.5,29.76,South,181,0.0,5.0,85,0.00,,,0.01,VWS V14.01,2013-02-05 08:29:00,
2013-02-05 02:34:00,20.3,16.8,29.75,SW,220,1.0,4.0,86,0.00,,,0.01,VWS V14.01,2013-02-05 08:34:00,
2013-02-05 02:39:00,20.3,16.8,29.75,SW,222,0.0,4.0,86,0.00,,,0.01,VWS V14.01,2013-02-05 08:39:00,
2013-02-05 02:44:00,20.3,16.8,29.75,SW,231,4.0,6.0,86,0.00,,,0.01,VWS V14.01,2013-02-05 08:44:00,
2013-02-05 02:49:00,20.3,16.8,29.75,SW,226,2.0,6.0,86,0.00,,,0.01,VWS V14.01,2013-02-05 08:49:00,
2013-02-05 02:54:00,20.3,16.8,29.75,West,263,1.0,6.0,86,0.00,,,0.01,VWS V14.01,2013-02-05 08:54:00,
2013-02-05 02:59:00,20.3,16.8,29.75,SSW,201,0.0,6.0,86,0.00,,,0.01,VWS V14.01,2013-02-05 08:59:00,
2013-02-05 03:04:00,20.2,16.7,29.75,SSW,205,0.0,3.0,86,0.00,,,0.01,VWS V14.01,2013-02-05 09:04:00,
2013-02-05 03:09:00,20.2,16.4,29.75,SSW,206,0.0,3.0,85,0.00,,,0.01,VWS V14.01,2013-02-05 09:09:00,
2013-02-05 03:14:00,20.1,16.6,29.75,SW,222,0.0,4.0,86,0.00,,,0.01,VWS V14.01,2013-02-05 09:14:00,
2013-02-05 03:20:00,20.1,16.3,29.74,SW,222,0.0,4.0,85,0.00,,,0.01,VWS V14.01,2013-02-05 09:20:00,
2013-02-05 03:25:00,20.1,16.3,29.74,SW,222,0.0,4.0,85,0.00,,,0.01,VWS V14.01,2013-02-05 09:25:00,
2013-02-05 03:30:00,20.2,16.4,29.74,SW,222,0.0,4.0,85,0.00,,,0.01,VWS V14.01,2013-02-05 09:30:00,
2013-02-05 03:35:00,20.2,16.7,29.74,SW,222,0.0,2.0,86,0.00,,,0.01,VWS V14.01,2013-02-05 09:35:00,
2013-02-05 03:40:00,20.2,16.7,29.74,SW,222,0.0,3.0,86,0.00,,,0.01,VWS V14.01,2013-02-05 09:40:00,
2013-02-05 03:45:00,20.4,16.9,29.74,SW,222,0.0,3.0,86,0.00,,,0.01,VWS V14.01,2013-02-05 09:45:00,
2013-02-05 03:50:00,20.5,17.2,29.74,SW,222,0.0,3.0,87,0.00,,,0.01,VWS V14.01,2013-02-05 09:50:00,
2013-02-05 03:55:00,20.7,17.5,29.74,SW,220,0.0,4.0,87,0.00,,,0.01,VWS V14.01,2013-02-05 09:55:00,
2013-02-05 04:00:00,20.9,17.6,29.73,SW,222,0.0,3.0,87,0.00,,,0.01,VWS V14.01,2013-02-05 10:00:00,
2013-02-05 04:05:00,21.2,17.9,29.73,SW,223,0.0,4.0,87,0.00,,,0.01,VWS V14.01,2013-02-05 10:05:00,
2013-02-05 04:10:00,21.5,18.2,29.73,SW,223,0.0,4.0,87,0.00,,,0.01,VWS V14.01,2013-02-05 10:10:00,
2013-02-05 04:15:00,21.7,18.4,29.73,SW,223,0.0,4.0,87,0.00,,,0.01,VWS V14.01,2013-02-05 10:15:00,
2013-02-05 04:21:00,22.0,18.7,29.73,SW,225,0.0,4.0,87,0.00,,,0.01,VWS V14.01,2013-02-05 10:21:00,
2013-02-05 04:26:00,22.2,18.9,29.73,SW,224,0.0,4.0,87,0.00,,,0.01,VWS V14.01,2013-02-05 10:26:00,
2013-02-05 04:31:00,22.5,19.0,29.73,SW,227,0.0,0.0,86,0.00,,,0.01,VWS V14.01,2013-02-05 10:31:00,
2013-02-05 04:36:00,22.7,19.1,29.73,SW,227,0.0,3.0,86,0.00,,,0.01,VWS V14.01,2013-02-05 10:36:00,
2013-02-05 04:41:00,23.0,19.5,29.73,WSW,240,0.0,5.0,86,0.00,,,0.01,VWS V14.01,2013-02-05 10:41:00,
2013-02-05 04:46:00,23.3,19.7,29.73,WSW,240,1.0,5.0,86,0.00,,,0.01,VWS V14.01,2013-02-05 10:46:00,
2013-02-05 04:51:00,23.5,19.9,29.72,WSW,239,0.0,5.0,86,0.00,,,0.01,VWS V14.01,2013-02-05 10:51:00,
2013-02-05 04:56:00,23.7,20.1,29.72,WSW,240,0.0,5.0,86,0.00,,,0.01,VWS V14.01,2013-02-05 10:56:00,
2013-02-05 05:01:00,23.9,20.3,29.73,WSW,239,1.0,2.0,86,0.00,,,0.01,VWS V14.01,2013-02-05 11:01:00,
2013-02-05 05:06:00,24.1,20.8,29.72,SW,228,0.0,8.0,87,0.00,,,0.01,VWS V14.01,2013-02-05 11:06:00,
2013-02-05 05:12:00,24.2,20.9,29.72,WSW,237,2.0,8.0,87,0.00,,,0.01,VWS V14.01,2013-02-05 11:12:00,
2013-02-05 05:17:00,24.2,21.2,29.72,WSW,248,0.0,8.0,88,0.00,,,0.01,VWS V14.01,2013-02-05 11:17:00,
2013-02-05 05:22:00,24.2,21.2,29.72,SW,225,5.0,8.0,88,0.00,,,0.01,VWS V14.01,2013-02-05 11:22:00,
2013-02-05 05:27:00,24.3,21.5,29.72,SW,226,5.0,8.0,89,0.01,,,0.02,VWS V14.01,2013-02-05 11:27:00,
2013-02-05 05:32:00,24.3,21.5,29.72,SSW,213,0.0,2.0,89,0.01,,,0.02,VWS V14.01,2013-02-05 11:32:00,
2013-02-05 05:37:00,24.3,21.5,29.72,SW,227,0.0,4.0,89,0.02,,,0.03,VWS V14.01,2013-02-05 11:37:00,
2013-02-05 05:42:00,24.4,21.6,29.71,SW,230,0.0,6.0,89,0.02,,,0.03,VWS V14.01,2013-02-05 11:42:00,
2013-02-05 05:47:00,24.4,21.6,29.72,SW,228,3.0,6.0,89,0.03,,,0.04,VWS V14.01,2013-02-05 11:47:00,
2013-02-05 05:52:00,24.4,21.6,29.72,SW,236,1.0,6.0,89,0.03,,,0.04,VWS V14.01,2013-02-05 11:52:00,
2013-02-05 05:57:00,24.4,21.6,29.72,SW,232,1.0,6.0,89,0.03,,,0.04,VWS V14.01,2013-02-05 11:57:00,
2013-02-05 06:02:00,24.4,21.6,29.72,SW,225,0.0,7.0,89,0.03,,,0.04,VWS V14.01,2013-02-05 12:02:00,
2013-02-05 06:07:00,24.4,21.6,29.72,SW,227,1.0,7.0,89,0.03,,,0.04,VWS V14.01,2013-02-05 12:07:00,
2013-02-05 06:12:00,24.4,21.9,29.73,SW,235,2.0,7.0,90,0.03,,,0.04,VWS V14.01,2013-02-05 12:12:00,
2013-02-05 06:17:00,24.4,21.9,29.73,SW,230,5.0,7.0,90,0.03,,,0.04,VWS V14.01,2013-02-05 12:17:00,
2013-02-05 06:22:00,24.6,22.1,29.73,SW,230,1.0,7.0,90,0.03,,,0.04,VWS V14.01,2013-02-05 12:22:00,
2013-02-05 06:27:00,24.7,22.2,29.73,SW,229,0.0,7.0,90,0.03,,,0.04,VWS V14.01,2013-02-05 12:27:00,
2013-02-05 06:32:00,24.8,22.3,29.74,SW,229,0.0,0.0,90,0.02,,,0.04,VWS V14.01,2013-02-05 12:32:00,
2013-02-05 06:38:00,25.0,22.5,29.74,North,359,5.0,5.0,90,0.02,,,0.04,VWS V14.01,2013-02-05 12:38:00,
2013-02-05 06:43:00,25.1,22.6,29.74,SW,224,2.0,6.0,90,0.02,,,0.04,VWS V14.01,2013-02-05 12:43:00,
2013-02-05 06:48:00,25.3,22.8,29.74,SW,229,2.0,6.0,90,0.02,,,0.04,VWS V14.01,2013-02-05 12:48:00,
2013-02-05 06:53:00,25.5,23.0,29.75,SW,229,0.0,6.0,90,0.02,,,0.04,VWS V14.01,2013-02-05 12:53:00,
2013-02-05 06:58:00,25.6,23.1,29.75,SW,229,0.0,6.0,90,0.02,,,0.04,VWS V14.01,2013-02-05 12:58:00,
2013-02-05 07:03:00,25.8,23.3,29.75,SW,229,0.0,2.0,90,0.00,,,0.04,VWS V14.01,2013-02-05 13:03:00,
2013-02-05 07:08:00,26.0,23.5,29.75,SW,228,0.0,4.0,90,0.00,,,0.04,VWS V14.01,2013-02-05 13:08:00,
2013-02-05 07:13:00,26.2,23.7,29.75,SW,229,0.0,4.0,90,0.00,,,0.04,VWS V14.01,2013-02-05 13:13:00,
2013-02-05 07:18:00,26.4,23.9,29.75,SW,228,1.0,4.0,90,0.00,,,0.04,VWS V14.01,2013-02-05 13:18:00,
2013-02-05 07:23:00,26.5,24.0,29.75,SW,229,2.0,4.0,90,0.00,,,0.04,VWS V14.01,2013-02-05 13:23:00,
2013-02-05 07:28:00,26.6,24.1,29.75,SW,229,0.0,4.0,90,0.00,,,0.04,VWS V14.01,2013-02-05 13:28:00,
2013-02-05 07:33:00,26.8,24.0,29.76,SW,228,0.0,5.0,89,0.00,,,0.04,VWS V14.01,2013-02-05 13:33:00,
2013-02-05 07:39:00,26.9,24.1,29.76,WSW,243,0.0,5.0,89,0.00,,,0.04,VWS V14.01,2013-02-05 13:39:00,
2013-02-05 07:44:00,27.1,24.3,29.76,WSW,256,0.0,5.0,89,0.00,,,0.04,VWS V14.01,2013-02-05 13:44:00,
2013-02-05 07:49:00,27.2,24.4,29.77,WSW,256,0.0,5.0,89,0.00,,,0.04,VWS V14.01,2013-02-05 13:49:00,
2013-02-05 07:54:00,27.4,24.6,29.77,WSW,250,0.0,5.0,89,0.00,,,0.04,VWS V14.01,2013-02-05 13:54:00,
2013-02-05 07:59:00,27.5,24.7,29.77,West,281,3.0,5.0,89,0.00,,,0.04,VWS V14.01,2013-02-05 13:59:00,
2013-02-05 08:04:00,27.7,24.9,29.77,WSW,242,0.0,4.0,89,0.00,,,0.04,VWS V14.01,2013-02-05 14:04:00,
2013-02-05 08:09:00,27.8,25.0,29.78,WSW,242,0.0,4.0,89,0.00,,,0.04,VWS V14.01,2013-02-05 14:09:00,
2013-02-05 08:14:00,27.9,24.8,29.78,WSW,242,0.0,4.0,88,0.00,,,0.04,VWS V14.01,2013-02-05 14:14:00,
2013-02-05 08:19:00,28.1,25.0,29.77,WSW,242,0.0,4.0,88,0.00,,,0.04,VWS V14.01,2013-02-05 14:19:00,
2013-02-05 08:24:00,28.1,25.0,29.78,West,267,3.0,6.0,88,0.00,,,0.04,VWS V14.01,2013-02-05 14:24:00,
2013-02-05 08:29:00,28.1,25.0,29.79,West,269,0.0,6.0,88,0.00,,,0.04,VWS V14.01,2013-02-05 14:29:00,
2013-02-05 08:34:00,28.3,25.2,29.79,West,271,0.0,4.0,88,0.00,,,0.04,VWS V14.01,2013-02-05 14:34:00,
2013-02-05 08:39:00,28.4,25.3,29.79,NNW,329,0.0,6.0,88,0.00,,,0.04,VWS V14.01,2013-02-05 14:39:00,
2013-02-05 08:44:00,28.5,25.1,29.79,WNW,290,1.0,7.0,87,0.00,,,0.04,VWS V14.01,2013-02-05 14:44:00,
2013-02-05 08:50:00,28.7,25.0,29.80,North,359,0.0,7.0,86,0.00,,,0.04,VWS V14.01,2013-02-05 14:50:00,
2013-02-05 08:55:00,28.8,25.1,29.80,WSW,237,0.0,7.0,86,0.00,,,0.04,VWS V14.01,2013-02-05 14:55:00,
2013-02-05 09:00:00,28.8,25.1,29.81,WSW,241,0.0,7.0,86,0.00,,,0.04,VWS V14.01,2013-02-05 15:00:00,
2013-02-05 09:05:00,28.8,24.9,29.81,West,261,6.0,6.0,85,0.00,,,0.04,VWS V14.01,2013-02-05 15:05:00,
2013-02-05 09:10:00,28.9,25.0,29.81,NW,318,0.0,6.0,85,0.00,,,0.04,VWS V14.01,2013-02-05 15:10:00,
2013-02-05 09:15:00,29.0,25.1,29.81,West,262,1.0,6.0,85,0.00,,,0.04,VWS V14.01,2013-02-05 15:15:00,
2013-02-05 09:20:00,29.1,25.2,29.81,West,262,0.0,6.0,85,0.00,,,0.04,VWS V14.01,2013-02-05 15:20:00,
2013-02-05 09:25:00,29.2,25.0,29.82,WNW,291,0.0,6.0,84,0.00,,,0.04,VWS V14.01,2013-02-05 15:25:00,
2013-02-05 09:30:00,29.4,25.2,29.82,WNW,291,1.0,2.0,84,0.00,,,0.04,VWS V14.01,2013-02-05 15:30:00,
2013-02-05 09:35:00,29.5,25.3,29.82,WNW,299,0.0,2.0,84,0.00,,,0.04,VWS V14.01,2013-02-05 15:35:00,
2013-02-05 09:40:00,29.6,25.1,29.82,WNW,303,0.0,3.0,83,0.00,,,0.04,VWS V14.01,2013-02-05 15:40:00,
2013-02-05 09:45:00,29.7,25.5,29.83,WNW,303,0.0,3.0,84,0.00,,,0.04,VWS V14.01,2013-02-05 15:45:00,
2013-02-05 09:51:00,29.7,25.2,29.83,NW,305,0.0,3.0,83,0.00,,,0.04,VWS V14.01,2013-02-05 15:51:00,
2013-02-05 09:56:00,29.7,25.2,29.83,WNW,296,0.0,5.0,83,0.00,,,0.04,VWS V14.01,2013-02-05 15:56:00,
2013-02-05 10:01:00,29.8,25.0,29.83,WNW,295,0.0,0.0,82,0.00,,,0.04,VWS V14.01,2013-02-05 16:01:00,
2013-02-05 10:06:00,29.9,25.1,29.83,WNW,295,0.0,3.0,82,0.00,,,0.04,VWS V14.01,2013-02-05 16:06:00,
2013-02-05 10:11:00,30.1,25.3,29.84,NW,320,0.0,5.0,82,0.00,,,0.04,VWS V14.01,2013-02-05 16:11:00,
2013-02-05 10:16:00,30.0,25.2,29.84,NW,308,0.0,5.0,82,0.00,,,0.04,VWS V14.01,2013-02-05 16:16:00,
2013-02-05 10:21:00,30.1,25.3,29.85,NW,308,0.0,5.0,82,0.00,,,0.04,VWS V14.01,2013-02-05 16:21:00,
2013-02-05 10:26:00,30.2,25.1,29.85,NW,314,0.0,5.0,81,0.00,,,0.04,VWS V14.01,2013-02-05 16:26:00,
2013-02-05 10:31:00,30.2,25.1,29.85,WNW,287,2.0,5.0,81,0.00,,,0.04,VWS V14.01,2013-02-05 16:31:00,
2013-02-05 10:36:00,30.1,24.7,29.86,WNW,297,0.0,7.0,80,0.00,,,0.04,VWS V14.01,2013-02-05 16:36:00,
2013-02-05 10:41:00,29.9,24.2,29.86,NW,314,3.0,7.0,79,0.00,,,0.04,VWS V14.01,2013-02-05 16:41:00,
2013-02-05 10:46:00,29.7,24.0,29.87,WNW,286,5.0,7.0,79,0.00,,,0.04,VWS V14.01,2013-02-05 16:46:00,
2013-02-05 10:51:00,29.5,23.8,29.87,NNW,339,2.0,7.0,79,0.00,,,0.04,VWS V14.01,2013-02-05 16:51:00,
2013-02-05 10:56:00,29.3,23.6,29.88,NE,43,3.0,8.0,79,0.00,,,0.04,VWS V14.01,2013-02-05 16:56:00,
2013-02-05 11:01:00,29.1,23.4,29.88,NW,307,2.0,5.0,79,0.00,,,0.04,VWS V14.01,2013-02-05 17:01:00,
2013-02-05 11:06:00,29.0,23.3,29.88,North,8,3.0,7.0,79,0.00,,,0.04,VWS V14.01,2013-02-05 17:06:00,
2013-02-05 11:11:00,29.0,23.3,29.88,West,276,4.0,7.0,79,0.00,,,0.04,VWS V14.01,2013-02-05 17:11:00,
2013-02-05 11:17:00,29.0,23.3,29.89,NW,310,4.0,7.0,79,0.00,,,0.04,VWS V14.01,2013-02-05 17:17:00,
2013-02-05 11:22:00,29.1,23.1,29.89,WNW,303,6.0,9.0,78,0.00,,,0.04,VWS V14.01,2013-02-05 17:22:00,
2013-02-05 11:27:00,29.1,23.1,29.89,NW,325,0.0,9.0,78,0.00,,,0.04,VWS V14.01,2013-02-05 17:27:00,
2013-02-05 11:32:00,29.2,23.5,29.89,West,280,7.0,7.0,79,0.00,,,0.04,VWS V14.01,2013-02-05 17:32:00,
2013-02-05 11:37:00,29.3,23.3,29.89,NNW,343,3.0,7.0,78,0.00,,,0.04,VWS V14.01,2013-02-05 17:37:00,
2013-02-05 11:42:00,29.4,23.4,29.89,NW,322,0.0,7.0,78,0.00,,,0.04,VWS V14.01,2013-02-05 17:42:00,
2013-02-05 11:47:00,29.6,23.6,29.89,North,4,5.0,7.0,78,0.00,,,0.04,VWS V14.01,2013-02-05 17:47:00,
2013-02-05 11:52:00,29.8,23.8,29.89,WNW,295,0.0,7.0,78,0.00,,,0.04,VWS V14.01,2013-02-05 17:52:00,
2013-02-05 11:57:00,30.0,23.7,29.89,WNW,289,2.0,7.0,77,0.00,,,0.04,VWS V14.01,2013-02-05 17:57:00,
2013-02-05 12:02:00,30.0,24.0,29.89,NW,320,0.0,3.0,78,0.00,,,0.04,VWS V14.01,2013-02-05 18:02:00,
2013-02-05 12:07:00,29.9,23.9,29.90,WNW,299,4.0,9.0,78,0.00,,,0.04,VWS V14.01,2013-02-05 18:07:00,
2013-02-05 12:12:00,29.9,23.6,29.89,WNW,297,0.0,9.0,77,0.00,,,0.04,VWS V14.01,2013-02-05 18:12:00,
2013-02-05 12:17:00,29.9,23.9,29.90,North,10,1.0,9.0,78,0.00,,,0.04,VWS V14.01,2013-02-05 18:17:00,
2013-02-05 12:22:00,29.7,23.4,29.91,NW,306,4.0,12.0,77,0.00,,,0.04,VWS V14.01,2013-02-05 18:22:00,
2013-02-05 12:27:00,29.5,23.5,29.91,NNW,339,0.0,12.0,78,0.00,,,0.04,VWS V14.01,2013-02-05 18:27:00,
2013-02-05 12:32:00,29.4,23.4,29.91,NE,40,0.0,5.0,78,0.00,,,0.04,VWS V14.01,2013-02-05 18:32:00,
2013-02-05 12:38:00,29.4,23.4,29.91,NW,320,3.0,7.0,78,0.00,,,0.04,VWS V14.01,2013-02-05 18:38:00,
2013-02-05 12:43:00,29.4,23.1,29.91,NW,304,0.0,7.0,77,0.00,,,0.04,VWS V14.01,2013-02-05 18:43:00,
2013-02-05 12:48:00,29.5,23.5,29.92,WNW,293,6.0,9.0,78,0.00,,,0.04,VWS V14.01,2013-02-05 18:48:00,
2013-02-05 12:53:00,29.6,23.3,29.92,NNW,330,2.0,9.0,77,0.00,,,0.04,VWS V14.01,2013-02-05 18:53:00,
2013-02-05 12:58:00,29.6,22.7,29.92,WNW,302,4.0,9.0,75,0.00,,,0.04,VWS V14.01,2013-02-05 18:58:00,
2013-02-05 13:03:00,29.8,22.5,29.92,NNE,27,1.0,5.0,74,0.00,,,0.04,VWS V14.01,2013-02-05 19:03:00,
2013-02-05 13:08:00,29.9,22.6,29.92,NNE,16,0.0,6.0,74,0.00,,,0.04,VWS V14.01,2013-02-05 19:08:00,
2013-02-05 13:13:00,30.2,22.6,29.92,North,4,3.0,6.0,73,0.00,,,0.04,VWS V14.01,2013-02-05 19:13:00,
2013-02-05 13:18:00,30.3,22.4,29.93,NW,305,0.0,6.0,72,0.00,,,0.04,VWS V14.01,2013-02-05 19:18:00,
2013-02-05 13:23:00,30.3,21.7,29.93,NNW,333,0.0,8.0,70,0.00,,,0.04,VWS V14.01,2013-02-05 19:23:00,
2013-02-05 13:28:00,30.4,22.1,29.93,WNW,293,0.0,8.0,71,0.00,,,0.04,VWS V14.01,2013-02-05 19:28:00,
2013-02-05 13:33:00,30.2,21.3,29.93,WNW,282,3.0,7.0,69,0.00,,,0.04,VWS V14.01,2013-02-05 19:33:00,
2013-02-05 13:38:00,29.8,21.2,29.94,West,280,6.0,8.0,70,0.00,,,0.04,VWS V14.01,2013-02-05 19:38:00,
2013-02-05 13:43:00,29.5,20.9,29.94,WNW,295,0.0,8.0,70,0.00,,,0.04,VWS V14.01,2013-02-05 19:43:00,
2013-02-05 13:48:00,29.5,21.3,29.94,WNW,296,3.0,8.0,71,0.00,,,0.04,VWS V14.01,2013-02-05 19:48:00,
2013-02-05 13:53:00,29.4,20.8,29.94,WNW,299,6.0,8.0,70,0.00,,,0.04,VWS V14.01,2013-02-05 19:53:00,
2013-02-05 13:58:00,29.4,21.2,29.95,WNW,285,0.0,9.0,71,0.00,,,0.04,VWS V14.01,2013-02-05 19:58:00,
2013-02-05 14:04:00,29.4,21.2,29.95,WNW,303,2.0,8.0,71,0.00,,,0.04,VWS V14.01,2013-02-05 20:04:00,
2013-02-05 14:09:00,28.9,20.4,29.95,NW,311,3.0,12.0,70,0.00,,,0.04,VWS V14.01,2013-02-05 20:09:00,
2013-02-05 14:14:00,28.1,19.6,29.96,NNW,328,1.0,12.0,70,0.00,,,0.04,VWS V14.01,2013-02-05 20:14:00,
2013-02-05 14:19:00,27.6,19.1,29.96,NNE,32,2.0,12.0,70,0.00,,,0.04,VWS V14.01,2013-02-05 20:19:00,
2013-02-05 14:24:00,27.4,19.2,29.96,NW,305,1.0,12.0,71,0.00,,,0.04,VWS V14.01,2013-02-05 20:24:00,
2013-02-05 14:29:00,27.3,19.5,29.97,WNW,291,0.0,12.0,72,0.00,,,0.04,VWS V14.01,2013-02-05 20:29:00,
2013-02-05 14:34:00,27.2,19.1,29.97,NW,324,0.0,9.0,71,0.00,,,0.04,VWS V14.01,2013-02-05 20:34:00,
2013-02-05 14:39:00,27.2,19.4,29.97,WNW,299,0.0,9.0,72,0.00,,,0.04,VWS V14.01,2013-02-05 20:39:00,
2013-02-05 14:44:00,27.4,19.2,29.97,NNW,335,0.0,9.0,71,0.00,,,0.04,VWS V14.01,2013-02-05 20:44:00,
2013-02-05 14:49:00,27.4,18.6,29.97,WNW,303,1.0,9.0,69,0.00,,,0.04,VWS V14.01,2013-02-05 20:49:00,
2013-02-05 14:54:00,27.4,18.6,29.98,North,354,0.0,9.0,69,0.00,,,0.04,VWS V14.01,2013-02-05 20:54:00,
2013-02-05 14:59:00,27.4,18.2,29.98,NW,304,0.0,9.0,68,0.00,,,0.04,VWS V14.01,2013-02-05 20:59:00,
2013-02-05 15:04:00,27.2,18.0,29.98,WNW,287,7.0,8.0,68,0.00,,,0.04,VWS V14.01,2013-02-05 21:04:00,
2013-02-05 15:09:00,27.2,18.7,29.98,WNW,287,7.0,8.0,70,0.00,,,0.04,VWS V14.01,2013-02-05 21:09:00,
2013-02-05 15:14:00,27.2,18.4,29.98,WNW,287,2.0,11.0,69,0.00,,,0.04,VWS V14.01,2013-02-05 21:14:00,
2013-02-05 15:19:00,27.1,18.0,29.98,West,276,6.0,11.0,68,0.00,,,0.04,VWS V14.01,2013-02-05 21:19:00,
2013-02-05 15:24:00,27.1,18.3,29.99,West,281,0.0,11.0,69,0.00,,,0.04,VWS V14.01,2013-02-05 21:24:00,
2013-02-05 15:30:00,27.1,18.0,29.99,NW,309,3.0,11.0,68,0.00,,,0.04,VWS V14.01,2013-02-05 21:30:00,
2013-02-05 15:35:00,27.0,18.2,29.99,West,268,4.0,7.0,69,0.00,,,0.04,VWS V14.01,2013-02-05 21:35:00,
2013-02-05 15:40:00,26.9,18.1,29.99,West,278,5.0,7.0,69,0.00,,,0.04,VWS V14.01,2013-02-05 21:40:00,
2013-02-05 15:45:00,26.8,17.7,29.99,WNW,301,0.0,7.0,68,0.00,,,0.04,VWS V14.01,2013-02-05 21:45:00,
2013-02-05 15:50:00,26.7,17.6,30.00,WNW,301,3.0,8.0,68,0.00,,,0.04,VWS V14.01,2013-02-05 21:50:00,
2013-02-05 15:55:00,26.6,17.1,30.00,NW,307,1.0,8.0,67,0.00,,,0.04,VWS V14.01,2013-02-05 21:55:00,
2013-02-05 16:00:00,26.5,17.0,30.00,NW,311,0.0,8.0,67,0.00,,,0.04,VWS V14.01,2013-02-05 22:00:00,
2013-02-05 16:05:00,26.2,16.4,30.00,NW,324,2.0,6.0,66,0.00,,,0.04,VWS V14.01,2013-02-05 22:05:00,
2013-02-05 16:10:00,26.1,16.7,30.01,NW,308,0.0,6.0,67,0.00,,,0.04,VWS V14.01,2013-02-05 22:10:00,
2013-02-05 16:15:00,26.0,16.6,30.01,NW,314,0.0,6.0,67,0.00,,,0.04,VWS V14.01,2013-02-05 22:15:00,
2013-02-05 16:20:00,25.9,16.5,30.01,WNW,299,1.0,6.0,67,0.00,,,0.04,VWS V14.01,2013-02-05 22:20:00,
2013-02-05 16:25:00,25.9,16.5,30.01,WNW,293,0.0,6.0,67,0.00,,,0.04,VWS V14.01,2013-02-05 22:25:00,
2013-02-05 16:30:00,25.9,16.5,30.01,WNW,293,0.0,1.0,67,0.00,,,0.04,VWS V14.01,2013-02-05 22:30:00,
2013-02-05 16:35:00,25.9,16.1,30.01,WNW,293,2.0,6.0,66,0.00,,,0.04,VWS V14.01,2013-02-05 22:35:00,
2013-02-05 16:40:00,25.8,16.0,30.01,WNW,294,4.0,6.0,66,0.00,,,0.04,VWS V14.01,2013-02-05 22:40:00,
2013-02-05 16:45:00,25.6,15.5,30.02,WNW,292,0.0,6.0,65,0.00,,,0.04,VWS V14.01,2013-02-05 22:45:00,
2013-02-05 16:50:00,25.3,15.2,30.02,NW,315,0.0,6.0,65,0.00,,,0.04,VWS V14.01,2013-02-05 22:50:00,
2013-02-05 16:55:00,25.1,15.0,30.02,NW,313,0.0,6.0,65,0.00,,,0.04,VWS V14.01,2013-02-05 22:55:00,
2013-02-05 17:00:00,24.9,14.8,30.02,NW,316,0.0,0.0,65,0.00,,,0.04,VWS V14.01,2013-02-05 23:00:00,
2013-02-05 17:05:00,24.8,14.7,30.03,NW,315,0.0,2.0,65,0.00,,,0.04,VWS V14.01,2013-02-05 23:05:00,
2013-02-05 17:10:00,24.5,14.1,30.03,NW,310,0.0,5.0,64,0.00,,,0.04,VWS V14.01,2013-02-05 23:10:00,
2013-02-05 17:15:00,24.4,14.3,30.03,NW,310,0.0,5.0,65,0.00,,,0.04,VWS V14.01,2013-02-05 23:15:00,
2013-02-05 17:20:00,24.3,13.9,30.03,NW,314,0.0,5.0,64,0.00,,,0.04,VWS V14.01,2013-02-05 23:20:00,
2013-02-05 17:25:00,24.1,14.1,30.03,NW,314,0.0,5.0,65,0.00,,,0.04,VWS V14.01,2013-02-05 23:25:00,
2013-02-05 17:31:00,24.0,14.0,30.03,NW,314,0.0,0.0,65,0.00,,,0.04,VWS V14.01,2013-02-05 23:31:00,
2013-02-05 17:36:00,23.9,13.9,30.04,NW,314,0.0,0.0,65,0.00,,,0.04,VWS V14.01,2013-02-05 23:36:00,
2013-02-05 17:41:00,23.8,13.8,30.04,NW,314,0.0,0.0,65,0.00,,,0.04,VWS V14.01,2013-02-05 23:41:00,
2013-02-05 17:46:00,23.7,14.0,30.04,NW,314,0.0,0.0,66,0.00,,,0.04,VWS V14.01,2013-02-05 23:46:00,
2013-02-05 17:51:00,23.7,14.0,30.04,NW,314,0.0,0.0,66,0.00,,,0.04,VWS V14.01,2013-02-05 23:51:00,
2013-02-05 17:56:00,23.6,13.9,30.04,NW,314,0.0,0.0,66,0.00,,,0.04,VWS V14.01,2013-02-05 23:56:00,
2013-02-05 18:01:00,23.5,13.8,30.04,NW,314,0.0,0.0,66,0.00,,,0.04,VWS V14.01,2013-02-06 00:01:00,
2013-02-05 18:06:00,23.2,13.2,30.04,NW,314,0.0,0.0,65,0.00,,,0.04,VWS V14.01,2013-02-06 00:06:00,
2013-02-05 18:11:00,23.1,13.4,30.05,NW,314,0.0,0.0,66,0.00,,,0.04,VWS V14.01,2013-02-06 00:11:00,
2013-02-05 18:16:00,22.7,13.4,30.05,NW,314,0.0,0.0,67,0.00,,,0.04,VWS V14.01,2013-02-06 00:16:00,
2013-02-05 18:21:00,22.4,13.1,30.05,NW,314,0.0,0.0,67,0.00,,,0.04,VWS V14.01,2013-02-06 00:21:00,
2013-02-05 18:26:00,22.1,13.2,30.06,NW,314,0.0,0.0,68,0.00,,,0.04,VWS V14.01,2013-02-06 00:26:00,
2013-02-05 18:31:00,21.8,13.2,30.06,NW,313,0.0,0.0,69,0.00,,,0.04,VWS V14.01,2013-02-06 00:31:00,
2013-02-05 18:36:00,21.5,13.2,30.06,NW,313,0.0,0.0,70,0.00,,,0.04,VWS V14.01,2013-02-06 00:36:00,
2013-02-05 18:41:00,21.3,13.7,30.06,NW,313,0.0,2.0,72,0.00,,,0.04,VWS V14.01,2013-02-06 00:41:00,
2013-02-05 18:46:00,21.3,13.7,30.06,NW,313,0.0,2.0,72,0.00,,,0.04,VWS V14.01,2013-02-06 00:46:00,
2013-02-05 18:52:00,21.1,13.5,30.07,NW,313,0.0,2.0,72,0.00,,,0.04,VWS V14.01,2013-02-06 00:52:00,
2013-02-05 18:57:00,21.0,13.7,30.07,NW,313,0.0,2.0,73,0.00,,,0.04,VWS V14.01,2013-02-06 00:57:00,
2013-02-05 19:02:00,20.8,13.5,30.07,NW,313,0.0,0.0,73,0.00,,,0.04,VWS V14.01,2013-02-06 01:02:00,
2013-02-05 19:07:00,20.6,13.3,30.08,NW,313,0.0,0.0,73,0.00,,,0.04,VWS V14.01,2013-02-06 01:07:00,
2013-02-05 19:12:00,20.4,13.4,30.08,NW,313,0.0,0.0,74,0.00,,,0.04,VWS V14.01,2013-02-06 01:12:00,
2013-02-05 19:17:00,20.2,13.2,30.08,NW,313,0.0,0.0,74,0.00,,,0.04,VWS V14.01,2013-02-06 01:17:00,
2013-02-05 19:22:00,20.0,13.1,30.08,NW,313,0.0,0.0,74,0.00,,,0.04,VWS V14.01,2013-02-06 01:22:00,
2013-02-05 19:27:00,19.8,12.9,30.08,NW,313,0.0,0.0,74,0.00,,,0.04,VWS V14.01,2013-02-06 01:27:00,
2013-02-05 19:32:00,19.6,13.0,30.09,NW,313,0.0,0.0,75,0.00,,,0.04,VWS V14.01,2013-02-06 01:32:00,
2013-02-05 19:37:00,19.4,12.8,30.09,NW,313,0.0,0.0,75,0.00,,,0.04,VWS V14.01,2013-02-06 01:37:00,
2013-02-05 19:42:00,19.2,12.6,30.09,NW,313,0.0,0.0,75,0.00,,,0.04,VWS V14.01,2013-02-06 01:42:00,
2013-02-05 19:47:00,19.0,12.7,30.09,NW,313,0.0,0.0,76,0.00,,,0.04,VWS V14.01,2013-02-06 01:47:00,
2013-02-05 19:52:00,18.8,12.5,30.08,NW,313,0.0,0.0,76,0.00,,,0.04,VWS V14.01,2013-02-06 01:52:00,
2013-02-05 19:57:00,18.6,12.6,30.08,NW,313,0.0,0.0,77,0.00,,,0.04,VWS V14.01,2013-02-06 01:57:00,
2013-02-05 20:02:00,18.3,12.3,30.08,NW,313,0.0,0.0,77,0.00,,,0.04,VWS V14.01,2013-02-06 02:02:00,
2013-02-05 20:07:00,17.9,12.2,30.09,NW,313,0.0,3.0,78,0.00,,,0.04,VWS V14.01,2013-02-06 02:07:00,
2013-02-05 20:12:00,17.6,12.2,30.09,WNW,299,0.0,4.0,79,0.00,,,0.04,VWS V14.01,2013-02-06 02:12:00,
2013-02-05 20:17:00,17.4,11.7,30.09,WNW,299,0.0,4.0,78,0.00,,,0.04,VWS V14.01,2013-02-06 02:17:00,
2013-02-05 20:22:00,17.1,11.7,30.09,WNW,299,2.0,4.0,79,0.00,,,0.04,VWS V14.01,2013-02-06 02:22:00,
2013-02-05 20:27:00,16.8,11.4,30.10,WNW,289,3.0,5.0,79,0.00,,,0.04,VWS V14.01,2013-02-06 02:27:00,
2013-02-05 20:32:00,16.4,11.3,30.10,West,274,0.0,2.0,80,0.00,,,0.04,VWS V14.01,2013-02-06 02:32:00,
2013-02-05 20:38:00,16.1,10.8,30.11,West,264,2.0,4.0,79,0.00,,,0.04,VWS V14.01,2013-02-06 02:38:00,
2013-02-05 20:43:00,15.7,10.4,30.11,WSW,257,0.0,5.0,79,0.00,,,0.04,VWS V14.01,2013-02-06 02:43:00,
2013-02-05 20:48:00,15.2,9.9,30.11,WSW,257,0.0,5.0,79,0.00,,,0.04,VWS V14.01,2013-02-06 02:48:00,
2013-02-05 20:53:00,14.9,9.6,30.11,WSW,257,0.0,5.0,79,0.00,,,0.04,VWS V14.01,2013-02-06 02:53:00,
2013-02-05 20:58:00,14.7,9.7,30.10,WSW,257,0.0,5.0,80,0.00,,,0.04,VWS V14.01,2013-02-06 02:58:00,
2013-02-05 21:03:00,14.5,9.5,30.11,WSW,257,0.0,3.0,80,0.00,,,0.04,VWS V14.01,2013-02-06 03:03:00,
2013-02-05 21:08:00,14.4,9.4,30.11,WSW,257,0.0,4.0,80,0.00,,,0.04,VWS V14.01,2013-02-06 03:08:00,
2013-02-05 21:13:00,14.1,9.1,30.11,WSW,255,0.0,5.0,80,0.00,,,0.04,VWS V14.01,2013-02-06 03:13:00,
2013-02-05 21:18:00,14.0,9.0,30.11,WSW,255,0.0,5.0,80,0.00,,,0.04,VWS V14.01,2013-02-06 03:18:00,
2013-02-05 21:23:00,13.9,8.9,30.11,WSW,255,0.0,5.0,80,0.00,,,0.04,VWS V14.01,2013-02-06 03:23:00,
2013-02-05 21:28:00,13.9,8.6,30.11,WSW,255,0.0,5.0,79,0.00,,,0.04,VWS V14.01,2013-02-06 03:28:00,
2013-02-05 21:33:00,13.7,8.4,30.12,WSW,255,0.0,2.0,79,0.00,,,0.04,VWS V14.01,2013-02-06 03:33:00,
2013-02-05 21:38:00,13.6,8.3,30.12,WSW,255,0.0,2.0,79,0.00,,,0.04,VWS V14.01,2013-02-06 03:38:00,
2013-02-05 21:43:00,13.6,8.3,30.12,WSW,255,0.0,2.0,79,0.00,,,0.04,VWS V14.01,2013-02-06 03:43:00,
2013-02-05 21:48:00,13.6,8.3,30.12,WSW,255,0.0,2.0,79,0.00,,,0.04,VWS V14.01,2013-02-06 03:48:00,
2013-02-05 21:53:00,13.5,7.9,30.12,WSW,255,0.0,2.0,78,0.00,,,0.04,VWS V14.01,2013-02-06 03:53:00,
2013-02-05 21:58:00,13.1,7.5,30.11,WSW,255,0.0,2.0,78,0.00,,,0.04,VWS V14.01,2013-02-06 03:58:00,
2013-02-05 22:03:00,12.9,7.3,30.11,WSW,255,0.0,0.0,78,0.00,,,0.04,VWS V14.01,2013-02-06 04:03:00,
2013-02-05 22:08:00,12.7,7.4,30.12,WSW,255,0.0,0.0,79,0.00,,,0.04,VWS V14.01,2013-02-06 04:08:00,
2013-02-05 22:13:00,12.4,6.9,30.12,WSW,255,0.0,0.0,78,0.00,,,0.04,VWS V14.01,2013-02-06 04:13:00,
2013-02-05 22:19:00,12.3,7.0,30.11,WSW,255,0.0,0.0,79,0.00,,,0.04,VWS V14.01,2013-02-06 04:19:00,
2013-02-05 22:24:00,12.2,6.9,30.11,WSW,255,0.0,0.0,79,0.00,,,0.04,VWS V14.01,2013-02-06 04:24:00,
2013-02-05 22:29:00,12.2,6.9,30.11,WSW,255,0.0,0.0,79,0.00,,,0.04,VWS V14.01,2013-02-06 04:29:00,
2013-02-05 22:34:00,12.0,6.8,30.11,WSW,255,0.0,0.0,79,0.00,,,0.04,VWS V14.01,2013-02-06 04:34:00,
2013-02-05 22:39:00,12.0,6.8,30.11,WSW,255,0.0,0.0,79,0.00,,,0.04,VWS V14.01,2013-02-06 04:39:00,
2013-02-05 22:44:00,11.9,6.7,30.12,WSW,255,0.0,0.0,79,0.00,,,0.04,VWS V14.01,2013-02-06 04:44:00,
2013-02-05 22:49:00,11.9,6.4,30.11,WSW,255,0.0,0.0,78,0.00,,,0.04,VWS V14.01,2013-02-06 04:49:00,
2013-02-05 22:54:00,11.8,6.3,30.11,WSW,255,0.0,0.0,78,0.00,,,0.04,VWS V14.01,2013-02-06 04:54:00,
2013-02-05 22:59:00,11.7,6.2,30.11,WSW,255,1.0,3.0,78,0.00,,,0.04,VWS V14.01,2013-02-06 04:59:00,
2013-02-05 23:00:00,11.6,6.1,30.11,WSW,255,0.0,3.0,78,0.00,,,0.04,VWS V14.01,2013-02-06 05:00:00,
2013-02-05 23:02:00,11.5,6.3,30.11,WSW,255,0.0,0.0,79,0.00,,,0.04,VWS V14.01,2013-02-06 05:02:00,
2013-02-05 23:07:00,11.2,6.0,30.11,WSW,255,0.0,4.0,79,0.00,,,0.04,VWS V14.01,2013-02-06 05:07:00,
2013-02-05 23:12:00,10.8,5.6,30.11,WSW,255,0.0,4.0,79,0.00,,,0.04,VWS V14.01,2013-02-06 05:12:00,
2013-02-05 23:17:00,10.4,5.5,30.11,WSW,255,0.0,4.0,80,0.00,,,0.04,VWS V14.01,2013-02-06 05:17:00,
2013-02-05 23:22:00,10.1,5.2,30.11,WSW,254,0.0,4.0,80,0.00,,,0.04,VWS V14.01,2013-02-06 05:22:00,
2013-02-05 23:27:00,9.9,5.2,30.11,WSW,255,0.0,4.0,81,0.00,,,0.04,VWS V14.01,2013-02-06 05:27:00,
2013-02-05 23:32:00,9.7,5.1,30.11,WSW,254,0.0,0.0,81,0.00,,,0.04,VWS V14.01,2013-02-06 05:32:00,
2013-02-05 23:37:00,9.5,4.6,30.12,WSW,254,0.0,0.0,80,0.00,,,0.04,VWS V14.01,2013-02-06 05:37:00,
2013-02-05 23:43:00,9.3,4.7,30.11,WSW,254,0.0,0.0,81,0.00,,,0.04,VWS V14.01,2013-02-06 05:43:00,
2013-02-05 23:48:00,9.3,4.7,30.12,WSW,254,0.0,0.0,81,0.00,,,0.04,VWS V14.01,2013-02-06 05:48:00,
2013-02-05 23:53:00,9.2,4.6,30.12,WSW,254,0.0,0.0,81,0.00,,,0.04,VWS V14.01,2013-02-06 05:53:00,
2013-02-05 23:58:00,9.2,4.6,30.12,WSW,254,0.0,0.0,81,0.00,,,0.04,VWS V14.01,2013-02-06 05:58:00,